sensor_id;sensor_type;location;lat;lon;timestamp;pressure;altitude;pressure_sealevel;temperature;humidity
54900;BME280;40801;41.924;25.562;2023-02-19T00:01:09;99775.97;;;8.61;61.95
54900;BME280;40801;41.924;25.562;2023-02-19T00:03:36;99769.53;;;8.62;61.34
54900;BME280;40801;41.924;25.562;2023-02-19T00:06:07;99774.72;;;8.54;61.76
54900;BME280;40801;41.924;25.562;2023-02-19T00:08:34;99766.38;;;8.55;61.76
54900;BME280;40801;41.924;25.562;2023-02-19T00:11:05;99763.16;;;8.53;62.11
54900;BME280;40801;41.924;25.562;2023-02-19T00:13:38;99757.03;;;8.48;62.10
54900;BME280;40801;41.924;25.562;2023-02-19T00:16:14;99750.69;;;8.33;63.00
54900;BME280;40801;41.924;25.562;2023-02-19T00:18:40;99748.50;;;8.35;62.30
54900;BME280;40801;41.924;25.562;2023-02-19T00:21:06;99744.50;;;8.28;62.41
54900;BME280;40801;41.924;25.562;2023-02-19T00:23:31;99741.09;;;8.17;62.61
54900;BME280;40801;41.924;25.562;2023-02-19T00:26:04;99738.19;;;8.14;63.41
54900;BME280;40801;41.924;25.562;2023-02-19T00:28:30;99732.81;;;8.14;62.29
54900;BME280;40801;41.924;25.562;2023-02-19T00:30:55;99745.44;;;8.08;63.22
54900;BME280;40801;41.924;25.562;2023-02-19T00:33:20;99743.03;;;8.12;62.72
54900;BME280;40801;41.924;25.562;2023-02-19T00:35:46;99745.97;;;8.15;62.68
54900;BME280;40801;41.924;25.562;2023-02-19T00:38:11;99739.84;;;8.04;63.06
54900;BME280;40801;41.924;25.562;2023-02-19T00:40:37;99736.94;;;7.96;63.21
54900;BME280;40801;41.924;25.562;2023-02-19T00:43:03;99730.19;;;8.03;63.37
54900;BME280;40801;41.924;25.562;2023-02-19T00:45:28;99728.97;;;7.86;63.02
54900;BME280;40801;41.924;25.562;2023-02-19T00:47:54;99715.44;;;8.01;62.91
54900;BME280;40801;41.924;25.562;2023-02-19T00:50:20;99714.47;;;7.87;63.53
54900;BME280;40801;41.924;25.562;2023-02-19T00:52:45;99700.56;;;7.74;64.07
54900;BME280;40801;41.924;25.562;2023-02-19T00:55:11;99701.28;;;7.90;63.30
54900;BME280;40801;41.924;25.562;2023-02-19T00:57:36;99706.97;;;7.78;63.82
54900;BME280;40801;41.924;25.562;2023-02-19T01:00:02;99697.84;;;7.85;63.23
54900;BME280;40801;41.924;25.562;2023-02-19T01:02:28;99700.28;;;7.81;63.03
54900;BME280;40801;41.924;25.562;2023-02-19T01:04:53;99688.97;;;7.84;63.07
54900;BME280;40801;41.924;25.562;2023-02-19T01:07:19;99684.16;;;7.76;63.26
54900;BME280;40801;41.924;25.562;2023-02-19T01:09:44;99681.22;;;7.77;63.36
54900;BME280;40801;41.924;25.562;2023-02-19T01:12:09;99680.94;;;7.79;63.09
54900;BME280;40801;41.924;25.562;2023-02-19T01:14:35;99680.41;;;7.77;63.27
54900;BME280;40801;41.924;25.562;2023-02-19T01:17:00;99669.44;;;7.73;63.24
54900;BME280;40801;41.924;25.562;2023-02-19T01:19:25;99663.25;;;7.73;63.57
54900;BME280;40801;41.924;25.562;2023-02-19T01:21:51;99656.03;;;7.68;63.12
54900;BME280;40801;41.924;25.562;2023-02-19T01:24:16;99650.69;;;7.68;62.86
54900;BME280;40801;41.924;25.562;2023-02-19T01:26:42;99662.25;;;7.64;63.39
54900;BME280;40801;41.924;25.562;2023-02-19T01:29:08;99674.94;;;7.53;63.55
54900;BME280;40801;41.924;25.562;2023-02-19T01:31:33;99674.41;;;7.46;63.54
54900;BME280;40801;41.924;25.562;2023-02-19T01:34:00;99671.69;;;7.56;63.05
54900;BME280;40801;41.924;25.562;2023-02-19T01:36:27;99665.78;;;7.59;63.07
54900;BME280;40801;41.924;25.562;2023-02-19T01:38:53;99670.66;;;7.47;63.45
54900;BME280;40801;41.924;25.562;2023-02-19T01:41:22;99671.97;;;7.50;63.62
54900;BME280;40801;41.924;25.562;2023-02-19T01:46:26;99665.34;;;7.37;64.34
54900;BME280;40801;41.924;25.562;2023-02-19T01:48:53;99657.56;;;7.40;63.62
54900;BME280;40801;41.924;25.562;2023-02-19T01:51:19;99664.56;;;7.36;63.75
54900;BME280;40801;41.924;25.562;2023-02-19T01:53:50;99652.00;;;7.22;64.64
54900;BME280;40801;41.924;25.562;2023-02-19T01:56:19;99650.41;;;7.21;64.45
54900;BME280;40801;41.924;25.562;2023-02-19T01:58:46;99649.03;;;7.28;64.30
54900;BME280;40801;41.924;25.562;2023-02-19T02:01:11;99655.22;;;7.29;63.90
54900;BME280;40801;41.924;25.562;2023-02-19T02:03:39;99652.78;;;7.32;63.48
54900;BME280;40801;41.924;25.562;2023-02-19T02:06:30;99660.81;;;7.32;64.81
54900;BME280;40801;41.924;25.562;2023-02-19T02:08:58;99658.66;;;7.34;63.69
54900;BME280;40801;41.924;25.562;2023-02-19T02:11:56;99660.72;;;7.47;62.94
54900;BME280;40801;41.924;25.562;2023-02-19T02:14:25;99656.69;;;7.50;63.28
54900;BME280;40801;41.924;25.562;2023-02-19T02:22:17;99656.69;;;7.50;63.55
54900;BME280;40801;41.924;25.562;2023-02-19T02:28:06;99650.81;;;7.43;63.73
54900;BME280;40801;41.924;25.562;2023-02-19T02:30:46;99646.25;;;7.43;63.02
54900;BME280;40801;41.924;25.562;2023-02-19T02:38:24;99651.94;;;7.37;62.96
54900;BME280;40801;41.924;25.562;2023-02-19T02:40:52;99661.56;;;7.43;62.65
54900;BME280;40801;41.924;25.562;2023-02-19T02:43:18;99657.25;;;7.47;62.99
54900;BME280;40801;41.924;25.562;2023-02-19T02:45:44;99654.84;;;7.45;63.58
54900;BME280;40801;41.924;25.562;2023-02-19T02:48:16;99658.31;;;7.46;63.70
54900;BME280;40801;41.924;25.562;2023-02-19T02:51:09;99668.25;;;7.45;63.04
54900;BME280;40801;41.924;25.562;2023-02-19T02:53:36;99668.00;;;7.42;63.11
54900;BME280;40801;41.924;25.562;2023-02-19T02:56:22;99675.75;;;7.49;63.30
54900;BME280;40801;41.924;25.562;2023-02-19T02:58:51;99677.06;;;7.51;63.12
54900;BME280;40801;41.924;25.562;2023-02-19T03:01:30;99679.50;;;7.53;63.08
54900;BME280;40801;41.924;25.562;2023-02-19T03:04:23;99676.56;;;7.44;63.45
54900;BME280;40801;41.924;25.562;2023-02-19T03:06:51;99667.97;;;7.52;62.59
54900;BME280;40801;41.924;25.562;2023-02-19T03:09:22;99663.97;;;7.44;63.55
54900;BME280;40801;41.924;25.562;2023-02-19T03:11:56;99663.97;;;7.44;63.20
54900;BME280;40801;41.924;25.562;2023-02-19T03:14:51;99672.91;;;7.30;64.51
54900;BME280;40801;41.924;25.562;2023-02-19T03:17:52;99670.16;;;7.40;63.39
54900;BME280;40801;41.924;25.562;2023-02-19T03:20:40;99665.28;;;7.52;62.20
54900;BME280;40801;41.924;25.562;2023-02-19T03:23:09;99678.19;;;7.45;63.57
54900;BME280;40801;41.924;25.562;2023-02-19T03:25:37;99677.63;;;7.53;62.39
54900;BME280;40801;41.924;25.562;2023-02-19T03:28:25;99674.91;;;7.58;63.03
54900;BME280;40801;41.924;25.562;2023-02-19T03:31:15;99669.50;;;7.63;62.91
54900;BME280;40801;41.924;25.562;2023-02-19T03:33:44;99670.03;;;7.65;62.62
54900;BME280;40801;41.924;25.562;2023-02-19T03:36:12;99670.34;;;7.59;62.75
54900;BME280;40801;41.924;25.562;2023-02-19T03:38:48;99669.81;;;7.52;63.90
54900;BME280;40801;41.924;25.562;2023-02-19T03:41:29;99676.81;;;7.47;63.19
54900;BME280;40801;41.924;25.562;2023-02-19T03:44:15;99669.53;;;7.58;63.76
54900;BME280;40801;41.924;25.562;2023-02-19T03:46:53;99669.53;;;7.58;63.77
54900;BME280;40801;41.924;25.562;2023-02-19T03:49:34;99681.59;;;7.61;63.36
54900;BME280;40801;41.924;25.562;2023-02-19T03:54:49;99677.28;;;7.65;62.84
54900;BME280;40801;41.924;25.562;2023-02-19T03:57:27;99668.94;;;7.66;63.49
54900;BME280;40801;41.924;25.562;2023-02-19T04:00:03;99664.63;;;7.70;63.31
54900;BME280;40801;41.924;25.562;2023-02-19T04:02:34;99674.28;;;7.71;63.54
54900;BME280;40801;41.924;25.562;2023-02-19T04:05:32;99673.19;;;7.72;63.99
54900;BME280;40801;41.924;25.562;2023-02-19T04:08:05;99674.00;;;7.73;63.08
54900;BME280;40801;41.924;25.562;2023-02-19T04:10:33;99673.09;;;7.88;62.69
54900;BME280;40801;41.924;25.562;2023-02-19T04:13:03;99668.81;;;7.87;62.97
54900;BME280;40801;41.924;25.562;2023-02-19T04:15:32;99665.56;;;7.90;62.52
54900;BME280;40801;41.924;25.562;2023-02-19T04:18:03;99666.38;;;7.90;63.44
54900;BME280;40801;41.924;25.562;2023-02-19T04:20:35;99666.03;;;7.97;63.72
54900;BME280;40801;41.924;25.562;2023-02-19T04:23:03;99665.25;;;7.96;63.61
54900;BME280;40801;41.924;25.562;2023-02-19T04:25:29;99662.50;;;8.01;63.20
54900;BME280;40801;41.924;25.562;2023-02-19T04:27:55;99665.16;;;8.06;62.92
54900;BME280;40801;41.924;25.562;2023-02-19T04:30:21;99666.25;;;8.05;63.04
54900;BME280;40801;41.924;25.562;2023-02-19T04:32:46;99662.97;;;8.14;62.17
54900;BME280;40801;41.924;25.562;2023-02-19T04:35:11;99684.47;;;8.14;62.67
54900;BME280;40801;41.924;25.562;2023-02-19T04:37:37;99688.19;;;8.18;62.01
54900;BME280;40801;41.924;25.562;2023-02-19T04:40:02;99701.56;;;8.23;61.90
54900;BME280;40801;41.924;25.562;2023-02-19T04:42:28;99695.91;;;8.24;61.45
54900;BME280;40801;41.924;25.562;2023-02-19T04:44:53;99705.56;;;8.25;60.92
54900;BME280;40801;41.924;25.562;2023-02-19T04:47:19;99700.25;;;8.20;61.16
54900;BME280;40801;41.924;25.562;2023-02-19T04:49:44;99715.03;;;8.18;61.47
54900;BME280;40801;41.924;25.562;2023-02-19T04:52:10;99710.28;;;8.10;61.51
54900;BME280;40801;41.924;25.562;2023-02-19T04:54:35;99720.22;;;8.04;61.23
54900;BME280;40801;41.924;25.562;2023-02-19T04:57:01;99728.91;;;7.96;61.46
54900;BME280;40801;41.924;25.562;2023-02-19T04:59:26;99741.28;;;7.92;61.95
54900;BME280;40801;41.924;25.562;2023-02-19T05:01:52;99747.75;;;7.86;61.88
54900;BME280;40801;41.924;25.562;2023-02-19T05:04:17;99746.97;;;7.85;61.60
54900;BME280;40801;41.924;25.562;2023-02-19T05:06:43;99744.56;;;7.84;61.28
54900;BME280;40801;41.924;25.562;2023-02-19T05:09:08;99740.13;;;7.59;63.00
54900;BME280;40801;41.924;25.562;2023-02-19T05:11:33;99738.53;;;7.53;63.01
54900;BME280;40801;41.924;25.562;2023-02-19T05:13:59;99746.91;;;7.36;63.51
54900;BME280;40801;41.924;25.562;2023-02-19T05:16:24;99751.47;;;7.40;63.48
54900;BME280;40801;41.924;25.562;2023-02-19T05:18:50;99763.53;;;7.43;63.09
54900;BME280;40801;41.924;25.562;2023-02-19T05:21:15;99772.09;;;7.45;63.33
54900;BME280;40801;41.924;25.562;2023-02-19T05:23:41;99767.50;;;7.56;62.71
54900;BME280;40801;41.924;25.562;2023-02-19T05:26:19;99779.03;;;7.51;64.17
54900;BME280;40801;41.924;25.562;2023-02-19T05:28:48;99773.94;;;7.50;63.43
54900;BME280;40801;41.924;25.562;2023-02-19T05:31:14;99782.81;;;7.50;63.21
54900;BME280;40801;41.924;25.562;2023-02-19T05:33:40;99785.50;;;7.45;63.55
54900;BME280;40801;41.924;25.562;2023-02-19T05:36:09;99786.28;;;7.51;62.85
54900;BME280;40801;41.924;25.562;2023-02-19T05:38:35;99792.47;;;7.56;62.57
54900;BME280;40801;41.924;25.562;2023-02-19T05:41:15;99797.81;;;7.51;63.96
54900;BME280;40801;41.924;25.562;2023-02-19T05:43:42;99799.19;;;7.54;63.42
54900;BME280;40801;41.924;25.562;2023-02-19T05:46:11;99801.88;;;7.54;63.30
54900;BME280;40801;41.924;25.562;2023-02-19T05:48:37;99808.56;;;7.51;63.12
54900;BME280;40801;41.924;25.562;2023-02-19T05:51:05;99807.25;;;7.54;63.34
54900;BME280;40801;41.924;25.562;2023-02-19T05:53:31;99809.63;;;7.60;63.34
54900;BME280;40801;41.924;25.562;2023-02-19T05:55:57;99806.94;;;7.60;63.86
54900;BME280;40801;41.924;25.562;2023-02-19T05:58:25;99821.91;;;7.71;63.33
54900;BME280;40801;41.924;25.562;2023-02-19T06:00:50;99828.06;;;7.82;63.10
54900;BME280;40801;41.924;25.562;2023-02-19T06:03:16;99824.28;;;7.88;62.62
54900;BME280;40801;41.924;25.562;2023-02-19T06:05:41;99815.94;;;7.90;63.45
54900;BME280;40801;41.924;25.562;2023-02-19T06:08:07;99826.09;;;7.98;62.91
54900;BME280;40801;41.924;25.562;2023-02-19T06:10:33;99818.25;;;8.06;62.61
54900;BME280;40801;41.924;25.562;2023-02-19T06:12:58;99826.28;;;8.17;62.15
54900;BME280;40801;41.924;25.562;2023-02-19T06:15:23;99824.09;;;8.19;62.67
54900;BME280;40801;41.924;25.562;2023-02-19T06:17:49;99821.63;;;8.27;61.72
54900;BME280;40801;41.924;25.562;2023-02-19T06:20:14;99812.47;;;8.28;62.16
54900;BME280;40801;41.924;25.562;2023-02-19T06:22:40;99816.47;;;8.41;62.27
54900;BME280;40801;41.924;25.562;2023-02-19T06:25:05;99820.78;;;8.42;62.12
54900;BME280;40801;41.924;25.562;2023-02-19T06:27:36;99812.28;;;8.59;61.03
54900;BME280;40801;41.924;25.562;2023-02-19T06:30:01;99815.72;;;8.69;61.51
54900;BME280;40801;41.924;25.562;2023-02-19T06:32:27;99807.84;;;8.78;60.91
54900;BME280;40801;41.924;25.562;2023-02-19T06:34:52;99813.66;;;8.90;61.01
54900;BME280;40801;41.924;25.562;2023-02-19T06:37:17;99819.69;;;9.06;60.59
54900;BME280;40801;41.924;25.562;2023-02-19T06:39:43;99811.22;;;9.18;60.09
54900;BME280;40801;41.924;25.562;2023-02-19T06:42:08;99809.25;;;9.28;59.85
54900;BME280;40801;41.924;25.562;2023-02-19T06:44:35;99804.03;;;9.37;59.93
54900;BME280;40801;41.924;25.562;2023-02-19T06:47:00;99803.91;;;9.47;59.58
54900;BME280;40801;41.924;25.562;2023-02-19T06:49:25;99807.41;;;9.72;59.33
54900;BME280;40801;41.924;25.562;2023-02-19T06:51:51;99797.63;;;10.00;59.20
54900;BME280;40801;41.924;25.562;2023-02-19T06:54:16;99805.28;;;10.49;58.39
54900;BME280;40801;41.924;25.562;2023-02-19T06:56:42;99808.63;;;10.92;57.87
54900;BME280;40801;41.924;25.562;2023-02-19T06:59:12;99804.19;;;11.42;56.47
54900;BME280;40801;41.924;25.562;2023-02-19T07:01:38;99805.72;;;11.90;56.29
54900;BME280;40801;41.924;25.562;2023-02-19T07:04:05;99799.63;;;12.43;55.31
54900;BME280;40801;41.924;25.562;2023-02-19T07:06:32;99801.25;;;12.88;54.66
54900;BME280;40801;41.924;25.562;2023-02-19T07:08:59;99801.41;;;13.45;53.52
54900;BME280;40801;41.924;25.562;2023-02-19T07:11:25;99792.41;;;13.84;52.57
54900;BME280;40801;41.924;25.562;2023-02-19T07:13:55;99798.22;;;14.26;49.92
54900;BME280;40801;41.924;25.562;2023-02-19T07:16:21;99794.81;;;14.98;50.30
54900;BME280;40801;41.924;25.562;2023-02-19T07:18:47;99785.59;;;15.37;48.55
54900;BME280;40801;41.924;25.562;2023-02-19T07:21:13;99794.19;;;15.77;47.67
54900;BME280;40801;41.924;25.562;2023-02-19T07:23:40;99797.59;;;16.16;46.71
54900;BME280;40801;41.924;25.562;2023-02-19T07:26:14;99788.09;;;16.97;43.62
54900;BME280;40801;41.924;25.562;2023-02-19T07:28:44;99778.75;;;17.43;44.00
54900;BME280;40801;41.924;25.562;2023-02-19T07:31:11;99789.13;;;17.74;42.08
54900;BME280;40801;41.924;25.562;2023-02-19T07:33:37;99775.53;;;18.02;37.75
54900;BME280;40801;41.924;25.562;2023-02-19T07:36:05;99768.34;;;18.78;36.81
54900;BME280;40801;41.924;25.562;2023-02-19T07:38:30;99775.97;;;19.16;33.25
54900;BME280;40801;41.924;25.562;2023-02-19T07:40:57;99769.09;;;19.54;32.89
54900;BME280;40801;41.924;25.562;2023-02-19T07:43:24;99768.22;;;20.00;30.90
54900;BME280;40801;41.924;25.562;2023-02-19T07:45:50;99753.97;;;20.30;31.35
54900;BME280;40801;41.924;25.562;2023-02-19T07:48:16;99769.22;;;20.89;30.54
54900;BME280;40801;41.924;25.562;2023-02-19T07:50:49;99764.97;;;21.14;29.56
54900;BME280;40801;41.924;25.562;2023-02-19T07:53:14;99759.41;;;20.88;29.47
54900;BME280;40801;41.924;25.562;2023-02-19T07:55:40;99761.66;;;21.05;28.40
54900;BME280;40801;41.924;25.562;2023-02-19T07:58:05;99751.38;;;21.21;28.85
54900;BME280;40801;41.924;25.562;2023-02-19T08:00:30;99761.47;;;21.63;27.96
54900;BME280;40801;41.924;25.562;2023-02-19T08:02:56;99753.84;;;21.26;28.62
54900;BME280;40801;41.924;25.562;2023-02-19T08:05:31;99748.78;;;21.28;27.26
54900;BME280;40801;41.924;25.562;2023-02-19T08:07:58;99750.28;;;21.75;27.16
54900;BME280;40801;41.924;25.562;2023-02-19T08:10:25;99746.09;;;21.58;27.04
54900;BME280;40801;41.924;25.562;2023-02-19T08:13:14;99745.66;;;22.39;26.50
54900;BME280;40801;41.924;25.562;2023-02-19T08:15:54;99734.16;;;22.30;26.07
54900;BME280;40801;41.924;25.562;2023-02-19T08:18:25;99730.66;;;22.70;25.37
54900;BME280;40801;41.924;25.562;2023-02-19T08:20:51;99729.94;;;22.77;26.08
54900;BME280;40801;41.924;25.562;2023-02-19T08:23:17;99736.91;;;22.67;25.21
54900;BME280;40801;41.924;25.562;2023-02-19T08:25:45;99734.66;;;22.76;25.56
54900;BME280;40801;41.924;25.562;2023-02-19T08:28:11;99742.22;;;22.16;26.06
54900;BME280;40801;41.924;25.562;2023-02-19T08:30:39;99737.94;;;22.18;26.00
54900;BME280;40801;41.924;25.562;2023-02-19T08:33:06;99731.25;;;22.53;25.45
54900;BME280;40801;41.924;25.562;2023-02-19T08:35:33;99722.16;;;22.82;25.61
54900;BME280;40801;41.924;25.562;2023-02-19T08:38:03;99738.84;;;23.00;25.27
54900;BME280;40801;41.924;25.562;2023-02-19T08:40:29;99719.25;;;23.09;25.11
54900;BME280;40801;41.924;25.562;2023-02-19T08:42:54;99731.72;;;24.05;24.66
54900;BME280;40801;41.924;25.562;2023-02-19T08:45:20;99729.47;;;23.56;24.40
54900;BME280;40801;41.924;25.562;2023-02-19T08:47:45;99728.84;;;23.84;23.99
54900;BME280;40801;41.924;25.562;2023-02-19T08:50:11;99723.88;;;24.15;23.79
54900;BME280;40801;41.924;25.562;2023-02-19T08:52:37;99733.47;;;24.38;23.37
54900;BME280;40801;41.924;25.562;2023-02-19T08:55:04;99730.47;;;23.92;23.09
54900;BME280;40801;41.924;25.562;2023-02-19T08:57:29;99734.13;;;24.21;23.41
54900;BME280;40801;41.924;25.562;2023-02-19T08:59:55;99729.28;;;25.05;23.38
54900;BME280;40801;41.924;25.562;2023-02-19T09:02:22;99720.19;;;25.33;22.54
54900;BME280;40801;41.924;25.562;2023-02-19T09:04:48;99747.41;;;25.27;21.37
54900;BME280;40801;41.924;25.562;2023-02-19T09:07:14;99726.09;;;25.39;21.58
54900;BME280;40801;41.924;25.562;2023-02-19T09:09:39;99717.84;;;25.17;21.51
54900;BME280;40801;41.924;25.562;2023-02-19T09:12:06;99715.84;;;24.96;21.57
54900;BME280;40801;41.924;25.562;2023-02-19T09:14:32;99719.75;;;24.85;22.23
54900;BME280;40801;41.924;25.562;2023-02-19T09:16:59;99723.34;;;24.89;22.20
54900;BME280;40801;41.924;25.562;2023-02-19T09:19:25;99722.94;;;25.44;21.49
54900;BME280;40801;41.924;25.562;2023-02-19T09:21:51;99724.13;;;25.11;21.43
54900;BME280;40801;41.924;25.562;2023-02-19T09:24:16;99730.06;;;25.48;21.03
54900;BME280;40801;41.924;25.562;2023-02-19T09:26:42;99727.66;;;24.97;21.31
54900;BME280;40801;41.924;25.562;2023-02-19T09:29:07;99718.56;;;24.82;21.97
54900;BME280;40801;41.924;25.562;2023-02-19T09:31:33;99714.25;;;25.67;21.07
54900;BME280;40801;41.924;25.562;2023-02-19T09:33:59;99716.63;;;25.54;21.50
54900;BME280;40801;41.924;25.562;2023-02-19T09:36:25;99721.75;;;25.59;21.65
54900;BME280;40801;41.924;25.562;2023-02-19T09:38:50;99714.34;;;26.50;20.46
54900;BME280;40801;41.924;25.562;2023-02-19T09:41:23;99710.72;;;26.64;20.52
54900;BME280;40801;41.924;25.562;2023-02-19T09:43:51;99709.88;;;27.26;20.42
54900;BME280;40801;41.924;25.562;2023-02-19T09:48:52;99714.81;;;27.87;19.83
54900;BME280;40801;41.924;25.562;2023-02-19T09:51:20;99714.19;;;27.31;20.15
54900;BME280;40801;41.924;25.562;2023-02-19T09:53:48;99713.88;;;28.31;19.40
54900;BME280;40801;41.924;25.562;2023-02-19T09:56:16;99717.13;;;28.26;19.76
54900;BME280;40801;41.924;25.562;2023-02-19T09:58:49;99718.88;;;27.34;19.46
54900;BME280;40801;41.924;25.562;2023-02-19T10:01:16;99716.47;;;28.15;19.45
54900;BME280;40801;41.924;25.562;2023-02-19T10:03:47;99712.31;;;28.30;18.67
54900;BME280;40801;41.924;25.562;2023-02-19T10:06:22;99717.22;;;27.85;19.79
54900;BME280;40801;41.924;25.562;2023-02-19T10:08:54;99710.41;;;28.81;18.49
54900;BME280;40801;41.924;25.562;2023-02-19T10:11:21;99705.56;;;28.31;18.40
54900;BME280;40801;41.924;25.562;2023-02-19T10:13:52;99711.19;;;29.08;18.65
54900;BME280;40801;41.924;25.562;2023-02-19T10:16:24;99702.63;;;28.99;18.96
54900;BME280;40801;41.924;25.562;2023-02-19T10:18:51;99692.53;;;28.82;18.72
54900;BME280;40801;41.924;25.562;2023-02-19T10:21:22;99701.25;;;28.84;18.97
54900;BME280;40801;41.924;25.562;2023-02-19T10:23:58;99695.75;;;29.54;18.53
54900;BME280;40801;41.924;25.562;2023-02-19T10:26:24;99688.97;;;29.75;17.97
54900;BME280;40801;41.924;25.562;2023-02-19T10:28:50;99678.94;;;29.81;18.19
54900;BME280;40801;41.924;25.562;2023-02-19T10:31:18;99670.81;;;29.50;18.50
54900;BME280;40801;41.924;25.562;2023-02-19T10:33:57;99665.06;;;30.53;17.71
54900;BME280;40801;41.924;25.562;2023-02-19T10:38:51;99660.53;;;30.59;17.54
54900;BME280;40801;41.924;25.562;2023-02-19T10:41:21;99653.94;;;30.53;16.81
54900;BME280;40801;41.924;25.562;2023-02-19T10:44:03;99653.16;;;30.36;17.35
54900;BME280;40801;41.924;25.562;2023-02-19T10:46:32;99648.09;;;30.47;17.58
54900;BME280;40801;41.924;25.562;2023-02-19T10:49:04;99641.88;;;30.76;16.75
54900;BME280;40801;41.924;25.562;2023-02-19T10:51:33;99636.16;;;30.67;17.07
54900;BME280;40801;41.924;25.562;2023-02-19T10:54:32;99629.34;;;30.84;17.12
54900;BME280;40801;41.924;25.562;2023-02-19T11:02:17;99616.47;;;32.82;15.58
54900;BME280;40801;41.924;25.562;2023-02-19T11:05:01;99613.75;;;31.90;15.63
54900;BME280;40801;41.924;25.562;2023-02-19T11:07:28;99612.91;;;32.31;16.09
54900;BME280;40801;41.924;25.562;2023-02-19T11:09:54;99615.91;;;32.24;16.01
54900;BME280;40801;41.924;25.562;2023-02-19T11:12:26;99619.84;;;32.26;15.79
54900;BME280;40801;41.924;25.562;2023-02-19T11:14:53;99623.19;;;32.34;16.23
54900;BME280;40801;41.924;25.562;2023-02-19T11:17:26;99616.59;;;32.53;15.46
54900;BME280;40801;41.924;25.562;2023-02-19T11:20:01;99613.97;;;32.97;15.65
54900;BME280;40801;41.924;25.562;2023-02-19T11:22:34;99613.41;;;33.24;16.01
54900;BME280;40801;41.924;25.562;2023-02-19T11:25:13;99604.22;;;33.36;15.43
54900;BME280;40801;41.924;25.562;2023-02-19T11:31:27;99595.38;;;32.56;16.07
54900;BME280;40801;41.924;25.562;2023-02-19T11:34:03;99590.97;;;31.79;16.59
54900;BME280;40801;41.924;25.562;2023-02-19T11:36:40;99589.09;;;31.88;16.39
54900;BME280;40801;41.924;25.562;2023-02-19T11:44:44;99562.31;;;30.91;16.80
54900;BME280;40801;41.924;25.562;2023-02-19T11:52:53;99554.63;;;30.66;16.97
54900;BME280;40801;41.924;25.562;2023-02-19T11:58:38;99549.34;;;31.01;17.76
54900;BME280;40801;41.924;25.562;2023-02-19T12:02:00;99548.25;;;31.40;16.81
54900;BME280;40801;41.924;25.562;2023-02-19T12:12:22;99538.78;;;30.14;17.73
54900;BME280;40801;41.924;25.562;2023-02-19T12:20:14;99524.19;;;30.10;17.81
54900;BME280;40801;41.924;25.562;2023-02-19T12:43:25;99499.78;;;30.79;17.32
54900;BME280;40801;41.924;25.562;2023-02-19T12:45:45;99497.22;;;30.85;17.81
54900;BME280;40801;41.924;25.562;2023-02-19T12:51:22;99492.09;;;31.54;16.80
54900;BME280;40801;41.924;25.562;2023-02-19T12:59:10;99484.72;;;31.48;16.91
54900;BME280;40801;41.924;25.562;2023-02-19T13:01:53;99487.75;;;32.29;16.58
54900;BME280;40801;41.924;25.562;2023-02-19T13:09:50;99479.78;;;33.63;15.70
54900;BME280;40801;41.924;25.562;2023-02-19T13:12:33;99463.00;;;34.03;15.09
54900;BME280;40801;41.924;25.562;2023-02-19T13:15:03;99462.75;;;34.19;15.11
54900;BME280;40801;41.924;25.562;2023-02-19T13:17:49;99462.19;;;34.61;15.22
54900;BME280;40801;41.924;25.562;2023-02-19T13:31:53;99446.75;;;34.38;14.56
54900;BME280;40801;41.924;25.562;2023-02-19T13:37:12;99442.41;;;34.83;14.32
54900;BME280;40801;41.924;25.562;2023-02-19T13:39:50;99437.38;;;35.14;14.16
54900;BME280;40801;41.924;25.562;2023-02-19T13:42:27;99426.22;;;34.59;14.66
54900;BME280;40801;41.924;25.562;2023-02-19T13:44:55;99432.63;;;34.41;14.93
54900;BME280;40801;41.924;25.562;2023-02-19T13:50:22;99427.25;;;34.07;14.14
54900;BME280;40801;41.924;25.562;2023-02-19T13:52:48;99430.72;;;33.71;14.91
54900;BME280;40801;41.924;25.562;2023-02-19T13:58:33;99417.13;;;34.00;14.74
54900;BME280;40801;41.924;25.562;2023-02-19T14:01:00;99412.53;;;34.34;14.91
54900;BME280;40801;41.924;25.562;2023-02-19T14:06:07;99403.81;;;34.13;14.16
54900;BME280;40801;41.924;25.562;2023-02-19T14:08:55;99402.22;;;34.03;13.95
54900;BME280;40801;41.924;25.562;2023-02-19T14:16:54;99387.09;;;33.11;15.31
54900;BME280;40801;41.924;25.562;2023-02-19T14:30:32;99381.34;;;31.67;16.21
54900;BME280;40801;41.924;25.562;2023-02-19T14:33:02;99381.91;;;30.41;17.29
54900;BME280;40801;41.924;25.562;2023-02-19T14:35:34;99374.72;;;29.10;18.80
54900;BME280;40801;41.924;25.562;2023-02-19T14:38:02;99378.16;;;27.91;19.70
54900;BME280;40801;41.924;25.562;2023-02-19T14:40:36;99373.03;;;27.09;20.79
54900;BME280;40801;41.924;25.562;2023-02-19T14:43:04;99368.78;;;26.33;21.75
54900;BME280;40801;41.924;25.562;2023-02-19T14:45:36;99379.19;;;25.70;22.35
54900;BME280;40801;41.924;25.562;2023-02-19T14:48:05;99374.78;;;25.20;23.13
54900;BME280;40801;41.924;25.562;2023-02-19T14:50:33;99375.34;;;24.80;23.63
54900;BME280;40801;41.924;25.562;2023-02-19T14:53:03;99378.22;;;24.48;24.22
54900;BME280;40801;41.924;25.562;2023-02-19T14:55:35;99374.31;;;24.13;24.78
54900;BME280;40801;41.924;25.562;2023-02-19T14:58:05;99377.09;;;23.77;25.40
54900;BME280;40801;41.924;25.562;2023-02-19T15:00:39;99372.72;;;23.48;26.43
54900;BME280;40801;41.924;25.562;2023-02-19T15:03:20;99373.47;;;23.27;26.89
54900;BME280;40801;41.924;25.562;2023-02-19T15:05:54;99372.59;;;22.98;28.24
54900;BME280;40801;41.924;25.562;2023-02-19T15:08:26;99362.28;;;22.77;28.60
54900;BME280;40801;41.924;25.562;2023-02-19T15:10:52;99363.00;;;22.60;29.15
54900;BME280;40801;41.924;25.562;2023-02-19T15:13:23;99363.28;;;22.37;30.29
54900;BME280;40801;41.924;25.562;2023-02-19T15:15:49;99367.06;;;22.15;30.81
54900;BME280;40801;41.924;25.562;2023-02-19T15:18:23;99361.41;;;21.97;31.45
54900;BME280;40801;41.924;25.562;2023-02-19T15:20:50;99364.78;;;21.76;31.87
54900;BME280;40801;41.924;25.562;2023-02-19T15:23:23;99366.16;;;21.52;32.45